createdAt,value
2017-10-15T00:00:01.662Z,0
2017-10-15T00:01:11.028Z,0
2017-10-15T00:02:20.059Z,0
2017-10-15T00:03:28.753Z,0
2017-10-15T00:04:37.776Z,0
2017-10-15T00:05:47.137Z,0
2017-10-15T00:06:56.172Z,0
2017-10-15T00:08:05.539Z,0
2017-10-15T00:09:14.900Z,0
2017-10-15T00:10:24.259Z,0
2017-10-15T00:11:33.289Z,0
2017-10-15T00:12:42.321Z,0
2017-10-15T00:13:51.686Z,0
2017-10-15T00:15:01.384Z,0
2017-10-15T00:16:10.413Z,0
2017-10-15T00:17:19.782Z,0
2017-10-15T00:18:29.475Z,0
2017-10-15T00:19:38.833Z,0
2017-10-15T00:20:47.866Z,0
2017-10-15T00:21:57.583Z,0
2017-10-15T00:23:06.945Z,0
2017-10-15T00:24:15.641Z,0
2017-10-15T00:25:24.670Z,0
2017-10-15T00:26:33.380Z,0
2017-10-15T00:27:43.077Z,0
2017-10-15T00:28:52.105Z,0
2017-10-15T00:30:02.460Z,0
2017-10-15T00:31:11.159Z,0
2017-10-15T00:32:20.191Z,0
2017-10-15T00:33:29.214Z,0
2017-10-15T00:34:38.581Z,0
2017-10-15T00:35:47.953Z,0
2017-10-15T00:36:57.319Z,0
2017-10-15T00:38:06.688Z,0
2017-10-15T00:39:15.721Z,0
2017-10-15T00:40:24.424Z,0
2017-10-15T00:41:33.454Z,0
2017-10-15T00:42:42.485Z,0
2017-10-15T00:43:51.186Z,0
2017-10-15T00:45:00.218Z,0
2017-10-15T00:46:09.609Z,0
2017-10-15T00:47:18.645Z,0
2017-10-15T00:48:27.673Z,0
2017-10-15T00:49:37.047Z,0
2017-10-15T00:50:46.408Z,0
2017-10-15T00:51:55.113Z,0
2017-10-15T00:53:04.148Z,0
2017-10-15T00:54:13.175Z,0
2017-10-15T00:55:22.203Z,0
2017-10-15T00:56:31.600Z,0
2017-10-15T00:57:40.964Z,0
2017-10-15T00:58:49.992Z,0
2017-10-15T00:59:59.349Z,0
2017-10-15T01:01:08.047Z,0
2017-10-15T01:02:17.074Z,0
2017-10-15T01:03:26.140Z,0
2017-10-15T01:04:35.502Z,0
2017-10-15T01:05:44.869Z,0
2017-10-15T01:06:53.566Z,0
2017-10-15T01:08:02.598Z,0
2017-10-15T01:09:11.966Z,0
2017-10-15T01:10:21.665Z,0
2017-10-15T01:11:31.353Z,0
2017-10-15T01:12:40.720Z,0
2017-10-15T01:13:49.421Z,0
2017-10-15T01:14:58.122Z,0
2017-10-15T01:16:06.820Z,0
2017-10-15T01:17:15.518Z,0
2017-10-15T01:18:25.220Z,0
2017-10-15T01:19:34.252Z,0
2017-10-15T01:20:43.286Z,0
2017-10-15T01:21:53.002Z,0
2017-10-15T01:23:02.366Z,0
2017-10-15T01:24:11.064Z,0
2017-10-15T01:25:20.097Z,0
2017-10-15T01:26:29.125Z,0
2017-10-15T01:27:38.494Z,0
2017-10-15T01:28:47.522Z,0
2017-10-15T01:29:56.220Z,0
2017-10-15T01:31:05.587Z,0
2017-10-15T01:32:15.622Z,0
2017-10-15T01:33:24.312Z,0
2017-10-15T01:34:33.683Z,0
2017-10-15T01:35:43.049Z,0
2017-10-15T01:36:52.412Z,0
2017-10-15T01:38:01.445Z,0
2017-10-15T01:39:11.136Z,0
2017-10-15T01:40:20.168Z,0
2017-10-15T01:41:29.528Z,0
2017-10-15T01:42:38.888Z,0
2017-10-15T01:43:48.253Z,0
2017-10-15T01:44:56.954Z,0
2017-10-15T01:46:05.985Z,0
2017-10-15T01:47:15.023Z,0
2017-10-15T01:48:24.714Z,0
2017-10-15T01:49:33.741Z,0
2017-10-15T01:50:42.437Z,0
2017-10-15T01:51:51.472Z,0
2017-10-15T01:53:00.501Z,0
2017-10-15T01:54:09.541Z,0
2017-10-15T01:55:18.906Z,0
2017-10-15T01:56:27.599Z,0
2017-10-15T01:57:36.633Z,0
2017-10-15T01:58:45.663Z,0
2017-10-15T01:59:55.023Z,0
2017-10-15T02:01:04.056Z,0
2017-10-15T02:02:13.415Z,0
2017-10-15T02:03:22.781Z,0
2017-10-15T02:04:32.473Z,0
2017-10-15T02:05:42.519Z,0
2017-10-15T02:06:52.222Z,0
2017-10-15T02:08:01.263Z,0
2017-10-15T02:09:10.291Z,0
2017-10-15T02:10:19.652Z,0
2017-10-15T02:11:28.685Z,0
2017-10-15T02:12:37.382Z,0
2017-10-15T02:13:46.743Z,0
2017-10-15T02:14:55.445Z,0
2017-10-15T02:16:04.479Z,0
2017-10-15T02:17:13.176Z,0
2017-10-15T02:18:22.208Z,0
2017-10-15T02:19:31.240Z,0
2017-10-15T02:20:40.603Z,0
2017-10-15T02:21:49.960Z,0
2017-10-15T02:22:58.991Z,0
2017-10-15T02:24:08.026Z,0
2017-10-15T02:25:17.385Z,0
2017-10-15T02:26:26.747Z,0
2017-10-15T02:27:35.444Z,0
2017-10-15T02:28:45.133Z,0
2017-10-15T02:29:53.829Z,0
2017-10-15T02:31:02.856Z,0
2017-10-15T02:32:12.219Z,0
2017-10-15T02:33:20.943Z,0
2017-10-15T02:34:29.637Z,0
2017-10-15T02:35:39.342Z,0
2017-10-15T02:36:49.043Z,0
2017-10-15T02:37:57.741Z,0
2017-10-15T02:39:07.111Z,0
2017-10-15T02:40:16.143Z,0
2017-10-15T02:41:25.508Z,0
2017-10-15T02:42:35.201Z,0
2017-10-15T02:43:44.578Z,0
2017-10-15T02:44:53.934Z,0
2017-10-15T02:46:02.967Z,0
2017-10-15T02:47:11.664Z,0
2017-10-15T02:48:20.690Z,0
2017-10-15T02:49:29.386Z,0
2017-10-15T02:50:38.741Z,0
2017-10-15T02:51:48.105Z,0
2017-10-15T02:52:56.804Z,0
2017-10-15T02:54:06.836Z,0
2017-10-15T02:55:16.204Z,0
2017-10-15T02:56:24.905Z,0
2017-10-15T02:57:33.604Z,0
2017-10-15T02:58:42.644Z,0
2017-10-15T02:59:52.011Z,0
2017-10-15T03:01:01.040Z,0
2017-10-15T03:02:10.745Z,0
2017-10-15T03:03:19.776Z,0
2017-10-15T03:04:29.479Z,0
2017-10-15T03:05:38.514Z,0
2017-10-15T03:06:47.545Z,0
2017-10-15T03:07:56.236Z,0
2017-10-15T03:09:05.592Z,0
2017-10-15T03:10:14.618Z,0
2017-10-15T03:11:23.976Z,0
2017-10-15T03:12:33.015Z,0
2017-10-15T03:13:42.712Z,0
2017-10-15T03:14:51.738Z,0
2017-10-15T03:16:00.439Z,0
2017-10-15T03:17:09.136Z,0
2017-10-15T03:18:18.828Z,0
2017-10-15T03:19:27.860Z,0
2017-10-15T03:20:37.223Z,0
2017-10-15T03:21:46.927Z,0
2017-10-15T03:22:56.288Z,0
2017-10-15T03:24:05.983Z,0
2017-10-15T03:25:15.015Z,0
2017-10-15T03:26:24.381Z,0
2017-10-15T03:27:33.749Z,0
2017-10-15T03:28:42.773Z,0
2017-10-15T03:29:51.802Z,0
2017-10-15T03:31:01.837Z,0
2017-10-15T03:32:10.875Z,0
2017-10-15T03:33:20.239Z,0
2017-10-15T03:34:29.600Z,0
2017-10-15T03:35:38.633Z,0
2017-10-15T03:36:47.330Z,0
2017-10-15T03:37:56.360Z,0
2017-10-15T03:39:05.398Z,0
2017-10-15T03:40:14.096Z,0
2017-10-15T03:41:23.471Z,0
2017-10-15T03:42:32.167Z,0
2017-10-15T03:43:40.864Z,0
2017-10-15T03:44:50.572Z,0
2017-10-15T03:45:59.268Z,0
2017-10-15T03:47:08.300Z,0
2017-10-15T03:48:17.326Z,0
2017-10-15T03:49:26.027Z,0
2017-10-15T03:50:35.390Z,0
2017-10-15T03:51:44.423Z,0
2017-10-15T03:52:53.127Z,0
2017-10-15T03:54:02.508Z,0
2017-10-15T03:55:11.874Z,0
2017-10-15T03:56:20.905Z,0
2017-10-15T03:57:29.608Z,0
2017-10-15T03:58:38.976Z,0
2017-10-15T03:59:48.337Z,0
2017-10-15T04:00:57.700Z,0
2017-10-15T04:02:07.065Z,0
2017-10-15T04:03:16.432Z,0
2017-10-15T04:04:26.123Z,0
2017-10-15T04:05:35.148Z,0
2017-10-15T04:06:44.511Z,0
2017-10-15T04:07:53.207Z,0
2017-10-15T04:09:02.578Z,0
2017-10-15T04:10:11.273Z,0
2017-10-15T04:11:20.305Z,0
2017-10-15T04:12:29.334Z,0
2017-10-15T04:13:38.692Z,0
2017-10-15T04:14:48.065Z,0
2017-10-15T04:15:57.098Z,0
2017-10-15T04:17:06.139Z,0
2017-10-15T04:18:15.500Z,0
2017-10-15T04:19:24.532Z,0
2017-10-15T04:20:34.229Z,0
2017-10-15T04:21:42.928Z,0
2017-10-15T04:22:51.624Z,0
2017-10-15T04:24:00.320Z,0
2017-10-15T04:25:09.030Z,0
2017-10-15T04:26:18.727Z,0
2017-10-15T04:27:27.771Z,0
2017-10-15T04:28:36.460Z,0
2017-10-15T04:29:45.493Z,0
2017-10-15T04:30:54.525Z,0
2017-10-15T04:32:03.556Z,0
2017-10-15T04:33:12.256Z,0
2017-10-15T04:34:21.280Z,0
2017-10-15T04:35:31.311Z,0
2017-10-15T04:36:40.341Z,0
2017-10-15T04:37:49.701Z,0
2017-10-15T04:38:59.060Z,0
2017-10-15T04:40:08.442Z,0
2017-10-15T04:41:17.474Z,0
2017-10-15T04:42:26.845Z,0
2017-10-15T04:43:35.878Z,0
2017-10-15T04:44:44.575Z,0
2017-10-15T04:45:53.604Z,0
2017-10-15T04:47:02.968Z,0
2017-10-15T04:48:11.996Z,0
2017-10-15T04:49:21.024Z,0
2017-10-15T04:50:30.054Z,0
2017-10-15T04:51:39.089Z,0
2017-10-15T04:52:48.785Z,0
2017-10-15T04:53:58.481Z,0
2017-10-15T04:55:07.179Z,0
2017-10-15T04:56:16.540Z,0
2017-10-15T04:57:25.568Z,0
2017-10-15T04:58:34.596Z,0
2017-10-15T04:59:43.638Z,0
2017-10-15T05:00:52.996Z,0
2017-10-15T05:02:02.359Z,0
2017-10-15T05:03:11.388Z,0
2017-10-15T05:04:20.419Z,0
2017-10-15T05:05:29.782Z,0
2017-10-15T05:06:39.145Z,0
2017-10-15T05:07:48.173Z,0
2017-10-15T05:08:57.209Z,0
2017-10-15T05:10:06.242Z,0
2017-10-15T05:11:15.941Z,0
2017-10-15T05:12:24.635Z,0
2017-10-15T05:13:34.334Z,0
2017-10-15T05:14:43.029Z,0
2017-10-15T05:15:52.104Z,0
2017-10-15T05:17:00.803Z,0
2017-10-15T05:18:09.843Z,0
2017-10-15T05:19:18.534Z,0
2017-10-15T05:20:27.895Z,0
2017-10-15T05:21:36.594Z,0
2017-10-15T05:22:45.964Z,0
2017-10-15T05:23:54.990Z,0
2017-10-15T05:25:04.020Z,0
2017-10-15T05:26:13.050Z,0
2017-10-15T05:27:21.748Z,0
2017-10-15T05:28:31.444Z,0
2017-10-15T05:29:40.480Z,0
2017-10-15T05:30:49.513Z,0
2017-10-15T05:31:58.882Z,0
2017-10-15T05:33:07.912Z,0
2017-10-15T05:34:17.605Z,4
2017-10-15T05:35:27.303Z,0
2017-10-15T05:36:36.336Z,0
2017-10-15T05:37:45.364Z,4
2017-10-15T05:38:54.394Z,0
2017-10-15T05:40:03.756Z,4
2017-10-15T05:41:13.784Z,4
2017-10-15T05:42:23.140Z,4
2017-10-15T05:43:32.502Z,4
2017-10-15T05:44:41.210Z,4
2017-10-15T05:45:50.926Z,8
2017-10-15T05:46:59.962Z,8
2017-10-15T05:48:08.658Z,8
2017-10-15T05:49:17.358Z,8
2017-10-15T05:50:26.385Z,12
2017-10-15T05:51:35.419Z,12
2017-10-15T05:52:44.125Z,12
2017-10-15T05:53:53.487Z,16
2017-10-15T05:55:03.180Z,16
2017-10-15T05:56:12.879Z,16
2017-10-15T05:57:21.571Z,16
2017-10-15T05:58:30.935Z,20
2017-10-15T05:59:39.974Z,20
2017-10-15T06:00:48.672Z,24
2017-10-15T06:01:57.702Z,24
2017-10-15T06:03:07.069Z,28
2017-10-15T06:04:16.773Z,28
2017-10-15T06:05:25.472Z,28
2017-10-15T06:06:35.163Z,32
2017-10-15T06:07:44.529Z,32
2017-10-15T06:08:53.575Z,36
2017-10-15T06:10:02.609Z,40
2017-10-15T06:11:11.974Z,44
2017-10-15T06:12:20.670Z,44
2017-10-15T06:13:30.030Z,48
2017-10-15T06:14:39.732Z,48
2017-10-15T06:15:49.101Z,52
2017-10-15T06:16:58.472Z,56
2017-10-15T06:18:07.503Z,56
2017-10-15T06:19:16.866Z,60
2017-10-15T06:20:25.895Z,60
2017-10-15T06:21:34.920Z,60
2017-10-15T06:22:43.952Z,64
2017-10-15T06:23:52.981Z,68
2017-10-15T06:25:02.712Z,72
2017-10-15T06:26:12.090Z,72
2017-10-15T06:27:21.792Z,76
2017-10-15T06:28:31.818Z,80
2017-10-15T06:29:41.532Z,80
2017-10-15T06:30:50.890Z,84
2017-10-15T06:31:59.918Z,88
2017-10-15T06:33:09.282Z,88
2017-10-15T06:34:18.310Z,92
2017-10-15T06:35:28.001Z,92
2017-10-15T06:36:37.034Z,100
2017-10-15T06:37:45.733Z,100
2017-10-15T06:38:55.096Z,104
2017-10-15T06:40:03.797Z,104
2017-10-15T06:41:13.832Z,112
2017-10-15T06:42:22.860Z,116
2017-10-15T06:43:32.662Z,120
2017-10-15T06:44:42.030Z,124
2017-10-15T06:45:51.720Z,132
2017-10-15T06:47:00.751Z,132
2017-10-15T06:48:10.117Z,136
2017-10-15T06:49:19.151Z,140
2017-10-15T06:50:27.851Z,148
2017-10-15T06:51:37.221Z,168
2017-10-15T06:52:46.250Z,188
2017-10-15T06:53:55.620Z,192
2017-10-15T06:55:04.327Z,188
2017-10-15T06:56:13.020Z,192
2017-10-15T06:57:22.383Z,256
2017-10-15T06:58:31.416Z,360
2017-10-15T06:59:40.446Z,468
2017-10-15T07:00:49.813Z,476
2017-10-15T07:01:58.511Z,296
2017-10-15T07:03:07.211Z,364
2017-10-15T07:04:15.911Z,448
2017-10-15T07:05:24.938Z,340
2017-10-15T07:06:33.972Z,268
2017-10-15T07:07:42.999Z,308
2017-10-15T07:08:52.032Z,308
2017-10-15T07:10:01.059Z,364
2017-10-15T07:11:09.757Z,480
2017-10-15T07:12:18.783Z,1260
2017-10-15T07:13:28.155Z,2080
2017-10-15T07:14:36.849Z,1932
2017-10-15T07:15:46.209Z,1720
2017-10-15T07:16:55.918Z,1580
2017-10-15T07:18:05.280Z,828
2017-10-15T07:19:14.641Z,372
2017-10-15T07:20:24.337Z,404
2017-10-15T07:21:33.367Z,408
2017-10-15T07:22:42.062Z,472
2017-10-15T07:23:51.095Z,588
2017-10-15T07:25:00.795Z,700
2017-10-15T07:26:10.493Z,1004
2017-10-15T07:27:19.526Z,1568
2017-10-15T07:28:28.232Z,2404
2017-10-15T07:29:36.926Z,4844
2017-10-15T07:30:45.954Z,6996
2017-10-15T07:31:54.986Z,7856
2017-10-15T07:33:04.009Z,8832
2017-10-15T07:34:13.712Z,8408
2017-10-15T07:35:23.080Z,8556
2017-10-15T07:36:32.122Z,8524
2017-10-15T07:37:41.153Z,8532
2017-10-15T07:38:49.852Z,8060
2017-10-15T07:39:58.548Z,7948
2017-10-15T07:41:07.579Z,8072
2017-10-15T07:42:16.960Z,8056
2017-10-15T07:43:25.658Z,8044
2017-10-15T07:44:34.697Z,5968
2017-10-15T07:45:44.400Z,2504
2017-10-15T07:46:53.101Z,2152
2017-10-15T07:48:02.475Z,2068
2017-10-15T07:49:11.176Z,1936
2017-10-15T07:50:20.546Z,1772
2017-10-15T07:51:29.575Z,1712
2017-10-15T07:52:38.608Z,1700
2017-10-15T07:53:47.644Z,1688
2017-10-15T07:54:57.006Z,1676
2017-10-15T07:56:06.044Z,1664
2017-10-15T07:57:15.421Z,1652
2017-10-15T07:58:24.452Z,1644
2017-10-15T07:59:34.150Z,1636
2017-10-15T08:00:43.176Z,1624
2017-10-15T08:01:52.552Z,1624
2017-10-15T08:03:01.581Z,1620
2017-10-15T08:04:10.961Z,1616
2017-10-15T08:05:20.317Z,1616
2017-10-15T08:06:30.021Z,1608
2017-10-15T08:07:38.721Z,1604
2017-10-15T08:08:47.418Z,1596
2017-10-15T08:09:56.451Z,1596
2017-10-15T08:11:05.812Z,1596
2017-10-15T08:12:15.508Z,1584
2017-10-15T08:13:24.877Z,1588
2017-10-15T08:14:33.912Z,1584
2017-10-15T08:15:42.944Z,1580
2017-10-15T08:16:51.974Z,1576
2017-10-15T08:18:01.010Z,1572
2017-10-15T08:19:10.039Z,1576
2017-10-15T08:20:19.073Z,1580
2017-10-15T08:21:28.448Z,1580
2017-10-15T08:22:37.814Z,1588
2017-10-15T08:23:47.192Z,1588
2017-10-15T08:24:56.225Z,1596
2017-10-15T08:26:05.595Z,1592
2017-10-15T08:27:14.626Z,1592
2017-10-15T08:28:24.325Z,1588
2017-10-15T08:29:33.690Z,1584
2017-10-15T08:30:42.723Z,1584
2017-10-15T08:31:51.752Z,1588
2017-10-15T08:33:00.789Z,1588
2017-10-15T08:34:10.149Z,1588
2017-10-15T08:35:19.184Z,1588
2017-10-15T08:36:28.213Z,1588
2017-10-15T08:37:36.911Z,1584
2017-10-15T08:38:45.940Z,1588
2017-10-15T08:39:54.646Z,1592
2017-10-15T08:41:03.678Z,1596
2017-10-15T08:42:13.373Z,1612
2017-10-15T08:43:23.080Z,1624
2017-10-15T08:44:32.446Z,1636
2017-10-15T08:45:42.147Z,1652
2017-10-15T08:46:51.507Z,1668
2017-10-15T08:48:00.544Z,1668
2017-10-15T08:49:09.905Z,1664
2017-10-15T08:50:18.936Z,1656
2017-10-15T08:51:27.971Z,1652
2017-10-15T08:52:37.337Z,1648
2017-10-15T08:53:46.365Z,1648
2017-10-15T08:54:56.059Z,1652
2017-10-15T08:56:05.756Z,1660
2017-10-15T08:57:14.785Z,1668
2017-10-15T08:58:24.811Z,1680
2017-10-15T08:59:33.848Z,1708
2017-10-15T09:00:43.219Z,1736
2017-10-15T09:01:53.250Z,1772
2017-10-15T09:03:02.287Z,1812
2017-10-15T09:04:11.321Z,1860
2017-10-15T09:05:21.023Z,1932
2017-10-15T09:06:30.384Z,2040
2017-10-15T09:07:39.080Z,2132
2017-10-15T09:08:48.113Z,2196
2017-10-15T09:09:57.149Z,2260
2017-10-15T09:11:06.521Z,2344
2017-10-15T09:12:16.217Z,2436
2017-10-15T09:13:25.272Z,2516
2017-10-15T09:14:34.311Z,2616
2017-10-15T09:15:43.343Z,2696
2017-10-15T09:16:52.715Z,2764
2017-10-15T09:18:01.748Z,2820
2017-10-15T09:19:11.445Z,2908
2017-10-15T09:20:20.811Z,2980
2017-10-15T09:21:30.174Z,3028
2017-10-15T09:22:39.205Z,3092
2017-10-15T09:23:48.565Z,3128
2017-10-15T09:24:57.268Z,3172
2017-10-15T09:26:06.636Z,3216
2017-10-15T09:27:15.332Z,3288
2017-10-15T09:28:25.032Z,3400
2017-10-15T09:29:34.070Z,3552
2017-10-15T09:30:43.437Z,3640
2017-10-15T09:31:52.813Z,3740
2017-10-15T09:33:01.845Z,3896
2017-10-15T09:34:10.880Z,3968
2017-10-15T09:35:19.925Z,4052
2017-10-15T09:36:29.296Z,4208
2017-10-15T09:37:38.342Z,4332
2017-10-15T09:38:48.377Z,4436
2017-10-15T09:39:58.079Z,4648
2017-10-15T09:41:07.444Z,4844
2017-10-15T09:42:16.807Z,5096
2017-10-15T09:43:25.513Z,5324
2017-10-15T09:44:34.893Z,5336
2017-10-15T09:45:43.595Z,5200
2017-10-15T09:46:52.630Z,5104
2017-10-15T09:48:01.671Z,5140
2017-10-15T09:49:10.707Z,5280
2017-10-15T09:50:19.749Z,5252
2017-10-15T09:51:29.120Z,5280
2017-10-15T09:52:37.829Z,5304
2017-10-15T09:53:47.207Z,5448
2017-10-15T09:54:56.572Z,5628
2017-10-15T09:56:05.604Z,5920
2017-10-15T09:57:14.644Z,5968
2017-10-15T09:58:23.690Z,5956
2017-10-15T09:59:33.732Z,5852
2017-10-15T10:00:43.101Z,5660
2017-10-15T10:01:52.130Z,5548
2017-10-15T10:03:01.501Z,5524
2017-10-15T10:04:11.202Z,5756
2017-10-15T10:05:20.236Z,5940
2017-10-15T10:06:28.946Z,5820
2017-10-15T10:07:37.654Z,5912
2017-10-15T10:08:46.706Z,6004
2017-10-15T10:09:55.740Z,5916
2017-10-15T10:11:05.111Z,6056
2017-10-15T10:12:14.146Z,5912
2017-10-15T10:13:23.521Z,5788
2017-10-15T10:14:32.949Z,5956
2017-10-15T10:15:41.994Z,5948
2017-10-15T10:16:51.697Z,5896
2017-10-15T10:18:00.746Z,5776
2017-10-15T10:19:10.461Z,5748
2017-10-15T10:20:19.171Z,5824
2017-10-15T10:21:27.889Z,5504
2017-10-15T10:22:36.931Z,5516
2017-10-15T10:23:45.643Z,5352
2017-10-15T10:24:54.350Z,5264
2017-10-15T10:26:03.395Z,5524
2017-10-15T10:27:12.769Z,5964
2017-10-15T10:28:22.151Z,6100
2017-10-15T10:29:31.200Z,6316
2017-10-15T10:30:40.915Z,6552
2017-10-15T10:31:50.290Z,6600
2017-10-15T10:32:59.004Z,6712
2017-10-15T10:34:08.045Z,6832
2017-10-15T10:35:17.088Z,6688
2017-10-15T10:36:26.131Z,6588
2017-10-15T10:37:34.834Z,6164
2017-10-15T10:38:44.203Z,5780
2017-10-15T10:39:52.906Z,6208
2017-10-15T10:41:02.617Z,6424
2017-10-15T10:42:11.668Z,6416
2017-10-15T10:43:20.363Z,6356
2017-10-15T10:44:30.072Z,6492
2017-10-15T10:45:39.440Z,6392
2017-10-15T10:46:48.140Z,6232
2017-10-15T10:47:57.839Z,6100
2017-10-15T10:49:07.207Z,6136
2017-10-15T10:50:16.910Z,6072
2017-10-15T10:51:25.947Z,6124
2017-10-15T10:52:34.649Z,5976
2017-10-15T10:53:44.014Z,5884
2017-10-15T10:54:53.049Z,6180
2017-10-15T10:56:02.083Z,6228
2017-10-15T10:57:12.117Z,6192
2017-10-15T10:58:21.494Z,6124
2017-10-15T10:59:30.198Z,6248
2017-10-15T11:00:38.900Z,6044
2017-10-15T11:01:48.268Z,5948
2017-10-15T11:02:57.303Z,5968
2017-10-15T11:04:06.675Z,5740
2017-10-15T11:05:15.706Z,5676
2017-10-15T11:06:24.742Z,5608
2017-10-15T11:07:33.778Z,5556
2017-10-15T11:08:43.477Z,5328
2017-10-15T11:09:52.515Z,5120
2017-10-15T11:11:01.548Z,4892
2017-10-15T11:12:11.236Z,4652
2017-10-15T11:13:20.614Z,4540
2017-10-15T11:14:29.974Z,4484
2017-10-15T11:15:39.017Z,4484
2017-10-15T11:16:48.389Z,4640
2017-10-15T11:17:57.421Z,4764
2017-10-15T11:19:06.464Z,4672
2017-10-15T11:20:15.831Z,4500
2017-10-15T11:21:24.530Z,4448
2017-10-15T11:22:33.895Z,4424
2017-10-15T11:23:43.960Z,4408
2017-10-15T11:24:52.978Z,4356
2017-10-15T11:26:01.681Z,4352
2017-10-15T11:27:10.718Z,4308
2017-10-15T11:28:20.420Z,4232
2017-10-15T11:29:29.461Z,4208
2017-10-15T11:30:38.500Z,4168
2017-10-15T11:31:48.533Z,4128
2017-10-15T11:32:57.573Z,4056
2017-10-15T11:34:06.615Z,3876
2017-10-15T11:35:15.648Z,3624
2017-10-15T11:36:25.026Z,3304
2017-10-15T11:37:34.051Z,2824
2017-10-15T11:38:42.758Z,2336
2017-10-15T11:39:51.464Z,2060
2017-10-15T11:41:01.169Z,1900
2017-10-15T11:42:10.203Z,1824
2017-10-15T11:43:19.569Z,1780
2017-10-15T11:44:28.939Z,1736
2017-10-15T11:45:38.307Z,1700
2017-10-15T11:46:47.341Z,1656
2017-10-15T11:47:56.047Z,1616
2017-10-15T11:49:05.747Z,1572
2017-10-15T11:50:15.114Z,1528
2017-10-15T11:51:24.476Z,1496
2017-10-15T11:52:34.504Z,1468
2017-10-15T11:53:43.872Z,1444
2017-10-15T11:54:52.575Z,1424
2017-10-15T11:56:01.285Z,1408
2017-10-15T11:57:10.329Z,1392
2017-10-15T11:58:19.028Z,1380
2017-10-15T11:59:28.061Z,1364
2017-10-15T12:00:37.427Z,1352
2017-10-15T12:01:46.468Z,1348
2017-10-15T12:02:55.841Z,1340
2017-10-15T12:04:05.212Z,1328
2017-10-15T12:05:14.913Z,1316
2017-10-15T12:06:23.943Z,1308
2017-10-15T12:07:32.975Z,1300
2017-10-15T12:08:42.353Z,1272
2017-10-15T12:09:52.394Z,1208
2017-10-15T12:11:01.761Z,1140
2017-10-15T12:12:10.806Z,1072
2017-10-15T12:13:19.852Z,1008
2017-10-15T12:14:28.888Z,960
2017-10-15T12:15:37.928Z,920
2017-10-15T12:16:47.630Z,892
2017-10-15T12:17:56.668Z,868
2017-10-15T12:19:06.062Z,848
2017-10-15T12:20:14.757Z,836
2017-10-15T12:21:23.459Z,828
2017-10-15T12:22:32.832Z,820
2017-10-15T12:23:41.530Z,804
2017-10-15T12:24:50.563Z,796
2017-10-15T12:25:59.612Z,792
2017-10-15T12:27:08.647Z,784
2017-10-15T12:28:17.348Z,776
2017-10-15T12:29:26.379Z,772
2017-10-15T12:30:35.743Z,768
2017-10-15T12:31:45.434Z,756
2017-10-15T12:32:54.467Z,752
2017-10-15T12:34:03.171Z,744
2017-10-15T12:35:12.205Z,732
2017-10-15T12:36:21.902Z,720
2017-10-15T12:37:30.934Z,712
2017-10-15T12:38:40.635Z,704
2017-10-15T12:39:49.342Z,688
2017-10-15T12:40:58.374Z,680
2017-10-15T12:42:07.745Z,676
2017-10-15T12:43:16.777Z,664
2017-10-15T12:44:26.142Z,656
2017-10-15T12:45:35.842Z,648
2017-10-15T12:46:45.208Z,640
2017-10-15T12:47:54.570Z,628
2017-10-15T12:49:03.603Z,624
2017-10-15T12:50:12.970Z,608
2017-10-15T12:51:22.009Z,600
2017-10-15T12:52:31.711Z,596
2017-10-15T12:53:40.743Z,588
2017-10-15T12:54:49.778Z,580
2017-10-15T12:55:58.479Z,576
2017-10-15T12:57:07.525Z,568
2017-10-15T12:58:16.549Z,560
2017-10-15T12:59:25.922Z,556
2017-10-15T13:00:34.961Z,548
2017-10-15T13:01:44.329Z,540
2017-10-15T13:02:53.692Z,532
2017-10-15T13:04:03.064Z,528
2017-10-15T13:05:12.104Z,520
2017-10-15T13:06:21.387Z,512
2017-10-15T13:07:30.414Z,512
2017-10-15T13:08:39.783Z,508
2017-10-15T13:09:49.149Z,504
2017-10-15T13:10:58.521Z,500
2017-10-15T13:12:07.563Z,500
2017-10-15T13:13:16.941Z,496
2017-10-15T13:14:25.974Z,492
2017-10-15T13:15:34.674Z,488
2017-10-15T13:16:43.727Z,484
2017-10-15T13:17:52.865Z,480
2017-10-15T13:19:01.567Z,472
2017-10-15T13:20:10.607Z,472
2017-10-15T13:21:19.309Z,464
2017-10-15T13:22:28.680Z,464
2017-10-15T13:23:38.377Z,460
2017-10-15T13:24:48.091Z,456
2017-10-15T13:25:57.124Z,452
2017-10-15T13:27:06.493Z,448
2017-10-15T13:28:15.527Z,444
2017-10-15T13:29:24.219Z,440
2017-10-15T13:30:33.254Z,436
2017-10-15T13:31:42.619Z,436
2017-10-15T13:32:51.980Z,428
2017-10-15T13:34:00.677Z,424
2017-10-15T13:35:09.708Z,424
2017-10-15T13:36:18.748Z,420
2017-10-15T13:37:27.778Z,412
2017-10-15T13:38:36.483Z,408
2017-10-15T13:39:45.177Z,408
2017-10-15T13:40:54.207Z,404
2017-10-15T13:42:03.241Z,400
2017-10-15T13:43:11.939Z,396
2017-10-15T13:44:21.313Z,388
2017-10-15T13:45:30.685Z,388
2017-10-15T13:46:39.385Z,384
2017-10-15T13:47:49.095Z,384
2017-10-15T13:48:58.458Z,380
2017-10-15T13:50:07.828Z,372
2017-10-15T13:51:17.204Z,368
2017-10-15T13:52:26.588Z,364
2017-10-15T13:53:35.619Z,364
2017-10-15T13:54:44.984Z,360
2017-10-15T13:55:53.686Z,356
2017-10-15T13:57:03.064Z,352
2017-10-15T13:58:12.095Z,348
2017-10-15T13:59:21.459Z,344
2017-10-15T14:00:30.495Z,336
2017-10-15T14:01:39.213Z,336
2017-10-15T14:02:48.265Z,328
2017-10-15T14:03:56.967Z,328
2017-10-15T14:05:07.001Z,320
2017-10-15T14:06:15.700Z,316
2017-10-15T14:07:25.397Z,312
2017-10-15T14:08:34.431Z,308
2017-10-15T14:09:43.793Z,300
2017-10-15T14:10:52.494Z,296
2017-10-15T14:12:01.523Z,288
2017-10-15T14:13:10.558Z,280
2017-10-15T14:14:19.261Z,276
2017-10-15T14:15:28.298Z,272
2017-10-15T14:16:37.659Z,264
2017-10-15T14:17:47.023Z,260
2017-10-15T14:18:55.725Z,260
2017-10-15T14:20:04.426Z,248
2017-10-15T14:21:13.795Z,244
2017-10-15T14:22:22.830Z,236
2017-10-15T14:23:31.530Z,228
2017-10-15T14:24:41.225Z,224
2017-10-15T14:25:50.624Z,220
2017-10-15T14:26:59.329Z,216
2017-10-15T14:28:08.697Z,208
2017-10-15T14:29:18.064Z,204
2017-10-15T14:30:27.096Z,196
2017-10-15T14:31:36.131Z,188
2017-10-15T14:32:45.160Z,184
2017-10-15T14:33:54.196Z,176
2017-10-15T14:35:03.570Z,172
2017-10-15T14:36:12.936Z,164
2017-10-15T14:37:21.639Z,156
2017-10-15T14:38:31.005Z,152
2017-10-15T14:39:40.035Z,148
2017-10-15T14:40:49.067Z,144
2017-10-15T14:41:58.098Z,140
2017-10-15T14:43:07.133Z,140
2017-10-15T14:44:16.167Z,136
2017-10-15T14:45:25.547Z,136
2017-10-15T14:46:34.912Z,136
2017-10-15T14:47:43.614Z,132
2017-10-15T14:48:52.651Z,132
2017-10-15T14:50:01.684Z,128
2017-10-15T14:51:11.391Z,128
2017-10-15T14:52:20.759Z,128
2017-10-15T14:53:29.790Z,128
2017-10-15T14:54:38.493Z,124
2017-10-15T14:55:47.865Z,120
2017-10-15T14:56:56.897Z,120
2017-10-15T14:58:05.930Z,120
2017-10-15T14:59:15.299Z,116
2017-10-15T15:00:24.655Z,116
2017-10-15T15:01:33.690Z,116
2017-10-15T15:02:42.387Z,116
2017-10-15T15:03:51.088Z,112
2017-10-15T15:05:00.460Z,112
2017-10-15T15:06:10.166Z,112
2017-10-15T15:07:19.538Z,108
2017-10-15T15:08:28.236Z,108
2017-10-15T15:09:37.271Z,104
2017-10-15T15:10:46.632Z,104
2017-10-15T15:11:55.669Z,104
2017-10-15T15:13:06.039Z,100
2017-10-15T15:14:15.066Z,104
2017-10-15T15:15:24.764Z,100
2017-10-15T15:16:34.456Z,100
2017-10-15T15:17:43.158Z,100
2017-10-15T15:18:51.858Z,96
2017-10-15T15:20:00.892Z,96
2017-10-15T15:21:09.595Z,96
2017-10-15T15:22:18.297Z,92
2017-10-15T15:23:26.997Z,92
2017-10-15T15:24:36.046Z,92
2017-10-15T15:25:44.745Z,92
2017-10-15T15:26:53.775Z,88
2017-10-15T15:28:02.805Z,88
2017-10-15T15:29:11.839Z,84
2017-10-15T15:30:21.202Z,84
2017-10-15T15:31:30.234Z,80
2017-10-15T15:32:38.933Z,84
2017-10-15T15:33:47.980Z,80
2017-10-15T15:34:57.330Z,80
2017-10-15T15:36:06.034Z,76
2017-10-15T15:37:15.404Z,76
2017-10-15T15:38:24.431Z,76
2017-10-15T15:39:34.146Z,72
2017-10-15T15:40:43.520Z,76
2017-10-15T15:41:52.556Z,72
2017-10-15T15:43:01.586Z,72
2017-10-15T15:44:10.290Z,68
2017-10-15T15:45:19.669Z,68
2017-10-15T15:46:28.705Z,68
2017-10-15T15:47:38.072Z,64
2017-10-15T15:48:47.102Z,68
2017-10-15T15:49:56.136Z,64
2017-10-15T15:51:05.498Z,60
2017-10-15T15:52:14.525Z,60
2017-10-15T15:53:23.228Z,56
2017-10-15T15:54:31.927Z,56
2017-10-15T15:55:41.626Z,56
2017-10-15T15:56:50.992Z,56
2017-10-15T15:57:59.690Z,52
2017-10-15T15:59:08.386Z,52
2017-10-15T16:00:17.411Z,52
2017-10-15T16:01:27.110Z,48
2017-10-15T16:02:36.141Z,48
2017-10-15T16:03:44.843Z,44
2017-10-15T16:04:53.873Z,48
2017-10-15T16:06:03.245Z,44
2017-10-15T16:07:12.285Z,44
2017-10-15T16:08:21.650Z,40
2017-10-15T16:09:30.684Z,40